sensor_id;sensor_type;location;lat;lon;timestamp;P1;durP1;ratioP1;P2;durP2;ratioP2
57800;SDS011;43627;42.728;23.256;2022-09-13T00:00:49;4.20;;;2.97;;
57800;SDS011;43627;42.728;23.256;2022-09-13T00:03:17;4.60;;;3.05;;
57800;SDS011;43627;42.728;23.256;2022-09-13T00:05:44;4.70;;;3.20;;
57800;SDS011;43627;42.728;23.256;2022-09-13T00:08:11;4.93;;;3.35;;
57800;SDS011;43627;42.728;23.256;2022-09-13T00:10:38;4.25;;;3.42;;
57800;SDS011;43627;42.728;23.256;2022-09-13T00:13:07;4.38;;;3.03;;
57800;SDS011;43627;42.728;23.256;2022-09-13T00:15:35;5.43;;;3.90;;
57800;SDS011;43627;42.728;23.256;2022-09-13T00:18:02;6.32;;;3.30;;
57800;SDS011;43627;42.728;23.256;2022-09-13T00:20:29;5.60;;;3.20;;
57800;SDS011;43627;42.728;23.256;2022-09-13T00:22:55;4.85;;;3.17;;
57800;SDS011;43627;42.728;23.256;2022-09-13T00:25:22;4.22;;;3.40;;
57800;SDS011;43627;42.728;23.256;2022-09-13T00:27:49;4.32;;;3.00;;
57800;SDS011;43627;42.728;23.256;2022-09-13T00:30:15;4.57;;;3.42;;
57800;SDS011;43627;42.728;23.256;2022-09-13T00:32:42;5.63;;;3.10;;
57800;SDS011;43627;42.728;23.256;2022-09-13T00:35:09;3.88;;;2.85;;
57800;SDS011;43627;42.728;23.256;2022-09-13T00:37:35;6.90;;;3.05;;
57800;SDS011;43627;42.728;23.256;2022-09-13T00:40:02;3.95;;;3.00;;
57800;SDS011;43627;42.728;23.256;2022-09-13T00:42:30;6.97;;;3.83;;
57800;SDS011;43627;42.728;23.256;2022-09-13T00:45:02;4.95;;;3.58;;
57800;SDS011;43627;42.728;23.256;2022-09-13T00:47:39;6.10;;;3.30;;
57800;SDS011;43627;42.728;23.256;2022-09-13T00:53:08;6.55;;;3.30;;
57800;SDS011;43627;42.728;23.256;2022-09-13T00:55:42;5.03;;;3.20;;
57800;SDS011;43627;42.728;23.256;2022-09-13T00:58:16;6.40;;;3.55;;
57800;SDS011;43627;42.728;23.256;2022-09-13T01:00:46;5.22;;;3.58;;
57800;SDS011;43627;42.728;23.256;2022-09-13T01:03:14;7.72;;;3.55;;
57800;SDS011;43627;42.728;23.256;2022-09-13T01:05:44;5.78;;;3.40;;
57800;SDS011;43627;42.728;23.256;2022-09-13T01:08:13;7.03;;;3.58;;
57800;SDS011;43627;42.728;23.256;2022-09-13T01:10:45;11.00;;;3.78;;
57800;SDS011;43627;42.728;23.256;2022-09-13T01:13:19;4.47;;;3.28;;
57800;SDS011;43627;42.728;23.256;2022-09-13T01:15:48;5.60;;;4.15;;
57800;SDS011;43627;42.728;23.256;2022-09-13T01:18:15;7.45;;;3.42;;
57800;SDS011;43627;42.728;23.256;2022-09-13T01:20:44;5.85;;;3.50;;
57800;SDS011;43627;42.728;23.256;2022-09-13T01:31:37;6.38;;;3.63;;
57800;SDS011;43627;42.728;23.256;2022-09-13T01:42:57;4.75;;;3.70;;
57800;SDS011;43627;42.728;23.256;2022-09-13T01:48:33;4.22;;;3.78;;
57800;SDS011;43627;42.728;23.256;2022-09-13T01:56:42;5.95;;;4.07;;
57800;SDS011;43627;42.728;23.256;2022-09-13T01:59:11;5.13;;;4.00;;
57800;SDS011;43627;42.728;23.256;2022-09-13T02:01:46;9.38;;;4.28;;
57800;SDS011;43627;42.728;23.256;2022-09-13T02:04:21;4.72;;;4.00;;
57800;SDS011;43627;42.728;23.256;2022-09-13T02:06:52;5.15;;;3.97;;
57800;SDS011;43627;42.728;23.256;2022-09-13T02:09:29;6.65;;;3.95;;
57800;SDS011;43627;42.728;23.256;2022-09-13T02:12:00;5.03;;;4.35;;
57800;SDS011;43627;42.728;23.256;2022-09-13T02:14:34;7.32;;;4.20;;
57800;SDS011;43627;42.728;23.256;2022-09-13T02:17:09;5.68;;;4.60;;
57800;SDS011;43627;42.728;23.256;2022-09-13T02:19:41;8.23;;;4.93;;
57800;SDS011;43627;42.728;23.256;2022-09-13T02:22:15;6.95;;;5.05;;
57800;SDS011;43627;42.728;23.256;2022-09-13T02:24:47;8.25;;;4.82;;
57800;SDS011;43627;42.728;23.256;2022-09-13T02:27:22;10.90;;;5.18;;
57800;SDS011;43627;42.728;23.256;2022-09-13T02:29:54;8.23;;;5.07;;
57800;SDS011;43627;42.728;23.256;2022-09-13T02:36:00;8.10;;;5.15;;
57800;SDS011;43627;42.728;23.256;2022-09-13T02:38:20;7.90;;;5.20;;
57800;SDS011;43627;42.728;23.256;2022-09-13T02:41:08;6.68;;;4.53;;
57800;SDS011;43627;42.728;23.256;2022-09-13T02:43:46;6.78;;;4.47;;
57800;SDS011;43627;42.728;23.256;2022-09-13T02:49:30;12.88;;;6.13;;
57800;SDS011;43627;42.728;23.256;2022-09-13T02:58:01;7.75;;;4.45;;
57800;SDS011;43627;42.728;23.256;2022-09-13T03:00:35;7.90;;;4.15;;
57800;SDS011;43627;42.728;23.256;2022-09-13T03:03:03;7.18;;;4.55;;
57800;SDS011;43627;42.728;23.256;2022-09-13T03:05:33;7.00;;;4.45;;
57800;SDS011;43627;42.728;23.256;2022-09-13T03:08:00;11.93;;;4.15;;
57800;SDS011;43627;42.728;23.256;2022-09-13T03:10:29;7.25;;;4.15;;
57800;SDS011;43627;42.728;23.256;2022-09-13T03:13:35;7.25;;;4.32;;
57800;SDS011;43627;42.728;23.256;2022-09-13T03:20:15;11.20;;;4.30;;
57800;SDS011;43627;42.728;23.256;2022-09-13T03:28:30;7.13;;;4.30;;
57800;SDS011;43627;42.728;23.256;2022-09-13T03:31:31;5.63;;;3.88;;
57800;SDS011;43627;42.728;23.256;2022-09-13T03:36:43;8.15;;;4.03;;
57800;SDS011;43627;42.728;23.256;2022-09-13T03:39:21;7.97;;;4.38;;
57800;SDS011;43627;42.728;23.256;2022-09-13T03:41:57;6.38;;;3.85;;
57800;SDS011;43627;42.728;23.256;2022-09-13T03:44:32;5.50;;;3.65;;
57800;SDS011;43627;42.728;23.256;2022-09-13T03:47:03;6.15;;;4.10;;
57800;SDS011;43627;42.728;23.256;2022-09-13T03:49:32;5.90;;;3.83;;
57800;SDS011;43627;42.728;23.256;2022-09-13T03:52:02;6.75;;;4.32;;
57800;SDS011;43627;42.728;23.256;2022-09-13T03:54:30;6.00;;;4.40;;
57800;SDS011;43627;42.728;23.256;2022-09-13T03:59:35;7.55;;;4.55;;
57800;SDS011;43627;42.728;23.256;2022-09-13T04:02:04;11.38;;;4.00;;
57800;SDS011;43627;42.728;23.256;2022-09-13T04:04:35;10.98;;;4.65;;
57800;SDS011;43627;42.728;23.256;2022-09-13T04:07:02;10.02;;;4.00;;
57800;SDS011;43627;42.728;23.256;2022-09-13T04:09:29;5.78;;;3.90;;
57800;SDS011;43627;42.728;23.256;2022-09-13T04:11:57;7.85;;;4.28;;
57800;SDS011;43627;42.728;23.256;2022-09-13T04:14:23;4.90;;;3.67;;
57800;SDS011;43627;42.728;23.256;2022-09-13T04:16:52;8.82;;;4.18;;
57800;SDS011;43627;42.728;23.256;2022-09-13T04:19:20;6.47;;;3.85;;
57800;SDS011;43627;42.728;23.256;2022-09-13T04:21:48;10.18;;;4.60;;
57800;SDS011;43627;42.728;23.256;2022-09-13T04:24:15;8.38;;;4.28;;
57800;SDS011;43627;42.728;23.256;2022-09-13T04:26:43;6.32;;;3.97;;
57800;SDS011;43627;42.728;23.256;2022-09-13T04:29:10;7.10;;;4.80;;
57800;SDS011;43627;42.728;23.256;2022-09-13T04:31:37;12.23;;;4.05;;
57800;SDS011;43627;42.728;23.256;2022-09-13T04:34:03;7.30;;;3.65;;
57800;SDS011;43627;42.728;23.256;2022-09-13T04:36:31;9.50;;;5.25;;
57800;SDS011;43627;42.728;23.256;2022-09-13T04:38:58;6.43;;;4.20;;
57800;SDS011;43627;42.728;23.256;2022-09-13T04:41:25;7.35;;;3.95;;
57800;SDS011;43627;42.728;23.256;2022-09-13T04:43:52;6.55;;;4.32;;
57800;SDS011;43627;42.728;23.256;2022-09-13T04:46:18;6.57;;;3.42;;
57800;SDS011;43627;42.728;23.256;2022-09-13T04:48:49;7.22;;;4.00;;
57800;SDS011;43627;42.728;23.256;2022-09-13T04:51:16;7.10;;;4.22;;
57800;SDS011;43627;42.728;23.256;2022-09-13T04:53:44;15.60;;;4.53;;
57800;SDS011;43627;42.728;23.256;2022-09-13T04:56:11;7.00;;;4.63;;
57800;SDS011;43627;42.728;23.256;2022-09-13T04:58:40;11.60;;;4.47;;
57800;SDS011;43627;42.728;23.256;2022-09-13T05:01:07;9.70;;;4.18;;
57800;SDS011;43627;42.728;23.256;2022-09-13T05:03:35;9.32;;;4.55;;
57800;SDS011;43627;42.728;23.256;2022-09-13T05:06:03;9.15;;;3.67;;
57800;SDS011;43627;42.728;23.256;2022-09-13T05:08:30;13.95;;;3.67;;
57800;SDS011;43627;42.728;23.256;2022-09-13T05:10:58;5.47;;;2.88;;
57800;SDS011;43627;42.728;23.256;2022-09-13T05:13:25;7.00;;;2.55;;
57800;SDS011;43627;42.728;23.256;2022-09-13T05:15:59;8.73;;;2.80;;
57800;SDS011;43627;42.728;23.256;2022-09-13T05:18:28;6.00;;;2.90;;
57800;SDS011;43627;42.728;23.256;2022-09-13T05:20:56;2.95;;;2.33;;
57800;SDS011;43627;42.728;23.256;2022-09-13T05:23:24;5.75;;;2.42;;
57800;SDS011;43627;42.728;23.256;2022-09-13T05:25:53;3.30;;;2.47;;
57800;SDS011;43627;42.728;23.256;2022-09-13T05:28:20;3.58;;;2.63;;
57800;SDS011;43627;42.728;23.256;2022-09-13T05:30:54;3.67;;;2.53;;
57800;SDS011;43627;42.728;23.256;2022-09-13T05:33:22;7.22;;;2.40;;
57800;SDS011;43627;42.728;23.256;2022-09-13T05:35:49;5.18;;;2.30;;
57800;SDS011;43627;42.728;23.256;2022-09-13T05:38:17;7.25;;;4.30;;
57800;SDS011;43627;42.728;23.256;2022-09-13T05:40:44;9.75;;;3.70;;
57800;SDS011;43627;42.728;23.256;2022-09-13T05:43:11;10.77;;;4.03;;
57800;SDS011;43627;42.728;23.256;2022-09-13T05:45:38;4.72;;;2.58;;
57800;SDS011;43627;42.728;23.256;2022-09-13T05:48:05;7.18;;;3.25;;
57800;SDS011;43627;42.728;23.256;2022-09-13T05:50:35;9.32;;;4.35;;
57800;SDS011;43627;42.728;23.256;2022-09-13T05:53:23;5.97;;;2.97;;
57800;SDS011;43627;42.728;23.256;2022-09-13T05:55:49;10.40;;;3.17;;
57800;SDS011;43627;42.728;23.256;2022-09-13T05:58:16;6.82;;;2.42;;
57800;SDS011;43627;42.728;23.256;2022-09-13T06:00:43;3.90;;;2.13;;
57800;SDS011;43627;42.728;23.256;2022-09-13T06:03:09;3.78;;;2.75;;
57800;SDS011;43627;42.728;23.256;2022-09-13T06:05:36;5.53;;;2.80;;
57800;SDS011;43627;42.728;23.256;2022-09-13T06:08:03;7.57;;;2.55;;
57800;SDS011;43627;42.728;23.256;2022-09-13T06:10:29;5.80;;;2.30;;
57800;SDS011;43627;42.728;23.256;2022-09-13T06:12:56;7.75;;;2.28;;
57800;SDS011;43627;42.728;23.256;2022-09-13T06:15:22;8.40;;;2.55;;
57800;SDS011;43627;42.728;23.256;2022-09-13T06:17:49;13.38;;;3.80;;
57800;SDS011;43627;42.728;23.256;2022-09-13T06:20:16;7.13;;;2.70;;
57800;SDS011;43627;42.728;23.256;2022-09-13T06:22:42;4.28;;;2.17;;
57800;SDS011;43627;42.728;23.256;2022-09-13T06:25:09;11.10;;;2.15;;
57800;SDS011;43627;42.728;23.256;2022-09-13T06:27:36;5.38;;;2.63;;
57800;SDS011;43627;42.728;23.256;2022-09-13T06:30:02;6.28;;;2.25;;
57800;SDS011;43627;42.728;23.256;2022-09-13T06:32:30;4.75;;;2.22;;
57800;SDS011;43627;42.728;23.256;2022-09-13T06:34:57;5.72;;;2.58;;
57800;SDS011;43627;42.728;23.256;2022-09-13T06:37:23;4.07;;;2.35;;
57800;SDS011;43627;42.728;23.256;2022-09-13T06:39:50;4.32;;;2.42;;
57800;SDS011;43627;42.728;23.256;2022-09-13T06:42:17;3.53;;;2.20;;
57800;SDS011;43627;42.728;23.256;2022-09-13T06:44:43;4.38;;;2.20;;
57800;SDS011;43627;42.728;23.256;2022-09-13T06:47:13;4.03;;;2.40;;
57800;SDS011;43627;42.728;23.256;2022-09-13T06:49:40;5.15;;;2.00;;
57800;SDS011;43627;42.728;23.256;2022-09-13T06:52:07;7.78;;;3.85;;
57800;SDS011;43627;42.728;23.256;2022-09-13T06:54:34;8.05;;;2.88;;
57800;SDS011;43627;42.728;23.256;2022-09-13T06:57:00;11.95;;;2.97;;
57800;SDS011;43627;42.728;23.256;2022-09-13T06:59:28;4.95;;;2.08;;
57800;SDS011;43627;42.728;23.256;2022-09-13T07:01:55;5.50;;;2.28;;
57800;SDS011;43627;42.728;23.256;2022-09-13T07:04:22;4.95;;;2.42;;
57800;SDS011;43627;42.728;23.256;2022-09-13T07:06:49;4.32;;;2.30;;
57800;SDS011;43627;42.728;23.256;2022-09-13T07:09:17;4.82;;;2.35;;
57800;SDS011;43627;42.728;23.256;2022-09-13T07:11:46;5.50;;;2.50;;
57800;SDS011;43627;42.728;23.256;2022-09-13T07:14:16;6.35;;;2.10;;
57800;SDS011;43627;42.728;23.256;2022-09-13T07:16:46;7.60;;;2.08;;
57800;SDS011;43627;42.728;23.256;2022-09-13T07:19:15;4.65;;;1.90;;
57800;SDS011;43627;42.728;23.256;2022-09-13T07:21:48;4.43;;;2.30;;
57800;SDS011;43627;42.728;23.256;2022-09-13T07:24:15;4.40;;;2.13;;
57800;SDS011;43627;42.728;23.256;2022-09-13T07:26:43;8.52;;;2.42;;
57800;SDS011;43627;42.728;23.256;2022-09-13T07:29:10;3.50;;;2.25;;
57800;SDS011;43627;42.728;23.256;2022-09-13T07:31:41;8.82;;;2.17;;
57800;SDS011;43627;42.728;23.256;2022-09-13T07:34:16;6.68;;;2.38;;
57800;SDS011;43627;42.728;23.256;2022-09-13T07:36:44;3.67;;;2.13;;
57800;SDS011;43627;42.728;23.256;2022-09-13T07:39:15;5.88;;;2.33;;
57800;SDS011;43627;42.728;23.256;2022-09-13T07:41:48;5.95;;;2.33;;
57800;SDS011;43627;42.728;23.256;2022-09-13T07:44:15;5.65;;;2.80;;
57800;SDS011;43627;42.728;23.256;2022-09-13T07:46:41;4.30;;;2.20;;
57800;SDS011;43627;42.728;23.256;2022-09-13T07:49:11;2.95;;;1.80;;
57800;SDS011;43627;42.728;23.256;2022-09-13T07:51:40;3.17;;;2.05;;
57800;SDS011;43627;42.728;23.256;2022-09-13T07:54:15;3.63;;;1.80;;
57800;SDS011;43627;42.728;23.256;2022-09-13T07:56:43;6.05;;;1.83;;
57800;SDS011;43627;42.728;23.256;2022-09-13T07:59:14;3.20;;;1.80;;
57800;SDS011;43627;42.728;23.256;2022-09-13T08:01:43;7.72;;;1.90;;
57800;SDS011;43627;42.728;23.256;2022-09-13T08:04:15;2.63;;;1.58;;
57800;SDS011;43627;42.728;23.256;2022-09-13T08:06:44;2.33;;;1.85;;
57800;SDS011;43627;42.728;23.256;2022-09-13T08:09:12;5.15;;;1.92;;
57800;SDS011;43627;42.728;23.256;2022-09-13T08:11:40;4.57;;;1.83;;
57800;SDS011;43627;42.728;23.256;2022-09-13T08:14:09;4.07;;;1.83;;
57800;SDS011;43627;42.728;23.256;2022-09-13T08:16:38;4.22;;;1.70;;
57800;SDS011;43627;42.728;23.256;2022-09-13T08:19:05;2.65;;;1.85;;
57800;SDS011;43627;42.728;23.256;2022-09-13T08:21:34;3.50;;;1.30;;
57800;SDS011;43627;42.728;23.256;2022-09-13T08:24:03;2.38;;;1.77;;
57800;SDS011;43627;42.728;23.256;2022-09-13T08:26:31;3.85;;;1.60;;
57800;SDS011;43627;42.728;23.256;2022-09-13T08:29:00;2.50;;;1.58;;
57800;SDS011;43627;42.728;23.256;2022-09-13T08:31:27;4.07;;;1.50;;
57800;SDS011;43627;42.728;23.256;2022-09-13T08:33:55;4.05;;;1.80;;
57800;SDS011;43627;42.728;23.256;2022-09-13T08:36:23;2.22;;;1.77;;
57800;SDS011;43627;42.728;23.256;2022-09-13T08:38:54;3.03;;;1.63;;
57800;SDS011;43627;42.728;23.256;2022-09-13T08:50:05;2.53;;;0.90;;
57800;SDS011;43627;42.728;23.256;2022-09-13T08:52:50;4.93;;;0.93;;
57800;SDS011;43627;42.728;23.256;2022-09-13T08:57:59;1.92;;;1.15;;
57800;SDS011;43627;42.728;23.256;2022-09-13T09:00:47;1.30;;;1.15;;
57800;SDS011;43627;42.728;23.256;2022-09-13T09:03:22;1.63;;;1.17;;
57800;SDS011;43627;42.728;23.256;2022-09-13T09:06:13;2.33;;;1.40;;
57800;SDS011;43627;42.728;23.256;2022-09-13T09:08:46;2.38;;;1.70;;
57800;SDS011;43627;42.728;23.256;2022-09-13T09:17:01;5.40;;;3.05;;
57800;SDS011;43627;42.728;23.256;2022-09-13T09:19:49;1.65;;;1.00;;
57800;SDS011;43627;42.728;23.256;2022-09-13T09:22:20;2.50;;;1.50;;
57800;SDS011;43627;42.728;23.256;2022-09-13T09:24:55;2.00;;;1.00;;
57800;SDS011;43627;42.728;23.256;2022-09-13T09:27:22;4.13;;;1.40;;
57800;SDS011;43627;42.728;23.256;2022-09-13T09:29:50;2.58;;;1.48;;
57800;SDS011;43627;42.728;23.256;2022-09-13T09:37:44;5.10;;;2.15;;
57800;SDS011;43627;42.728;23.256;2022-09-13T09:40:15;4.20;;;1.92;;
57800;SDS011;43627;42.728;23.256;2022-09-13T09:42:44;3.30;;;2.08;;
57800;SDS011;43627;42.728;23.256;2022-09-13T09:48:01;5.90;;;1.70;;
57800;SDS011;43627;42.728;23.256;2022-09-13T09:50:35;1.25;;;1.05;;
57800;SDS011;43627;42.728;23.256;2022-09-13T09:53:22;7.03;;;2.00;;
57800;SDS011;43627;42.728;23.256;2022-09-13T09:56:03;7.20;;;2.00;;
57800;SDS011;43627;42.728;23.256;2022-09-13T09:58:42;9.93;;;1.48;;
57800;SDS011;43627;42.728;23.256;2022-09-13T10:01:23;4.32;;;1.60;;
57800;SDS011;43627;42.728;23.256;2022-09-13T10:04:37;2.47;;;1.77;;
57800;SDS011;43627;42.728;23.256;2022-09-13T10:06:38;2.58;;;1.35;;
57800;SDS011;43627;42.728;23.256;2022-09-13T10:11:44;1.73;;;1.50;;
57800;SDS011;43627;42.728;23.256;2022-09-13T10:17:03;2.42;;;1.42;;
57800;SDS011;43627;42.728;23.256;2022-09-13T10:22:24;6.45;;;2.17;;
57800;SDS011;43627;42.728;23.256;2022-09-13T10:24:51;3.40;;;1.70;;
57800;SDS011;43627;42.728;23.256;2022-09-13T10:27:21;1.77;;;1.55;;
57800;SDS011;43627;42.728;23.256;2022-09-13T10:29:58;2.42;;;1.38;;
57800;SDS011;43627;42.728;23.256;2022-09-13T10:32:27;1.42;;;1.30;;
57800;SDS011;43627;42.728;23.256;2022-09-13T10:34:55;1.67;;;1.25;;
57800;SDS011;43627;42.728;23.256;2022-09-13T10:37:27;3.97;;;1.20;;
57800;SDS011;43627;42.728;23.256;2022-09-13T10:42:34;1.95;;;1.20;;
57800;SDS011;43627;42.728;23.256;2022-09-13T10:45:05;1.85;;;1.40;;
57800;SDS011;43627;42.728;23.256;2022-09-13T10:52:50;2.63;;;1.70;;
57800;SDS011;43627;42.728;23.256;2022-09-13T10:57:48;2.40;;;1.70;;
57800;SDS011;43627;42.728;23.256;2022-09-13T11:16:30;4.07;;;1.60;;
57800;SDS011;43627;42.728;23.256;2022-09-13T11:22:26;1.67;;;1.58;;
57800;SDS011;43627;42.728;23.256;2022-09-13T11:27:32;3.00;;;2.28;;
57800;SDS011;43627;42.728;23.256;2022-09-13T11:38:37;2.53;;;1.00;;
57800;SDS011;43627;42.728;23.256;2022-09-13T11:50:34;1.30;;;1.20;;
57800;SDS011;43627;42.728;23.256;2022-09-13T11:53:10;44.42;;;4.30;;
57800;SDS011;43627;42.728;23.256;2022-09-13T11:55:57;2.50;;;1.27;;
57800;SDS011;43627;42.728;23.256;2022-09-13T11:58:46;4.30;;;1.30;;
57800;SDS011;43627;42.728;23.256;2022-09-13T12:01:19;1.05;;;0.95;;
57800;SDS011;43627;42.728;23.256;2022-09-13T12:04:03;1.30;;;1.20;;
57800;SDS011;43627;42.728;23.256;2022-09-13T12:06:37;1.92;;;1.13;;
57800;SDS011;43627;42.728;23.256;2022-09-13T12:12:23;2.08;;;1.17;;
57800;SDS011;43627;42.728;23.256;2022-09-13T12:14:46;2.00;;;1.42;;
57800;SDS011;43627;42.728;23.256;2022-09-13T12:17:39;2.05;;;1.00;;
57800;SDS011;43627;42.728;23.256;2022-09-13T12:22:52;2.03;;;1.23;;
57800;SDS011;43627;42.728;23.256;2022-09-13T12:25:22;1.95;;;0.90;;
57800;SDS011;43627;42.728;23.256;2022-09-13T12:28:25;2.10;;;1.13;;
57800;SDS011;43627;42.728;23.256;2022-09-13T12:30:49;1.73;;;1.20;;
57800;SDS011;43627;42.728;23.256;2022-09-13T12:33:21;1.38;;;1.20;;
57800;SDS011;43627;42.728;23.256;2022-09-13T13:00:29;1.88;;;1.02;;
57800;SDS011;43627;42.728;23.256;2022-09-13T13:05:37;1.58;;;1.02;;
57800;SDS011;43627;42.728;23.256;2022-09-13T13:10:58;1.92;;;1.30;;
57800;SDS011;43627;42.728;23.256;2022-09-13T13:13:44;2.35;;;1.20;;
57800;SDS011;43627;42.728;23.256;2022-09-13T13:16:20;4.50;;;1.52;;
57800;SDS011;43627;42.728;23.256;2022-09-13T13:19:03;5.88;;;1.70;;
57800;SDS011;43627;42.728;23.256;2022-09-13T13:21:50;5.07;;;1.70;;
57800;SDS011;43627;42.728;23.256;2022-09-13T13:41:54;6.15;;;1.40;;
57800;SDS011;43627;42.728;23.256;2022-09-13T13:46:53;3.10;;;1.55;;
57800;SDS011;43627;42.728;23.256;2022-09-13T13:57:27;3.22;;;1.85;;
57800;SDS011;43627;42.728;23.256;2022-09-13T14:00:15;3.10;;;1.90;;
57800;SDS011;43627;42.728;23.256;2022-09-13T14:08:39;2.55;;;1.55;;
57800;SDS011;43627;42.728;23.256;2022-09-13T14:19:26;4.20;;;1.50;;
57800;SDS011;43627;42.728;23.256;2022-09-13T14:24:35;4.15;;;1.45;;
57800;SDS011;43627;42.728;23.256;2022-09-13T14:27:03;2.20;;;1.38;;
57800;SDS011;43627;42.728;23.256;2022-09-13T14:29:34;1.83;;;1.20;;
57800;SDS011;43627;42.728;23.256;2022-09-13T14:32:02;1.52;;;1.40;;
57800;SDS011;43627;42.728;23.256;2022-09-13T14:34:33;2.83;;;1.40;;
57800;SDS011;43627;42.728;23.256;2022-09-13T14:37:03;2.72;;;1.58;;
57800;SDS011;43627;42.728;23.256;2022-09-13T14:39:52;3.40;;;1.70;;
57800;SDS011;43627;42.728;23.256;2022-09-13T14:42:20;2.05;;;1.70;;
57800;SDS011;43627;42.728;23.256;2022-09-13T14:44:47;5.13;;;1.92;;
57800;SDS011;43627;42.728;23.256;2022-09-13T14:47:25;2.08;;;1.30;;
57800;SDS011;43627;42.728;23.256;2022-09-13T14:49:59;5.45;;;1.42;;
57800;SDS011;43627;42.728;23.256;2022-09-13T14:52:34;3.58;;;1.50;;
57800;SDS011;43627;42.728;23.256;2022-09-13T14:55:07;1.70;;;1.30;;
57800;SDS011;43627;42.728;23.256;2022-09-13T14:57:42;5.82;;;1.60;;
57800;SDS011;43627;42.728;23.256;2022-09-13T15:00:15;4.78;;;1.58;;
57800;SDS011;43627;42.728;23.256;2022-09-13T15:02:47;3.45;;;1.70;;
57800;SDS011;43627;42.728;23.256;2022-09-13T15:05:26;1.20;;;1.10;;
57800;SDS011;43627;42.728;23.256;2022-09-13T15:07:56;2.30;;;1.63;;
57800;SDS011;43627;42.728;23.256;2022-09-13T15:10:24;4.00;;;1.65;;
57800;SDS011;43627;42.728;23.256;2022-09-13T15:13:07;4.60;;;1.58;;
57800;SDS011;43627;42.728;23.256;2022-09-13T15:15:38;3.42;;;2.03;;
57800;SDS011;43627;42.728;23.256;2022-09-13T15:20:44;3.00;;;1.65;;
57800;SDS011;43627;42.728;23.256;2022-09-13T15:23:15;5.40;;;1.90;;
57800;SDS011;43627;42.728;23.256;2022-09-13T15:28:53;2.55;;;2.03;;
57800;SDS011;43627;42.728;23.256;2022-09-13T15:31:23;3.83;;;1.23;;
57800;SDS011;43627;42.728;23.256;2022-09-13T15:36:43;5.37;;;2.33;;
57800;SDS011;43627;42.728;23.256;2022-09-13T15:39:13;4.75;;;1.88;;
57800;SDS011;43627;42.728;23.256;2022-09-13T15:41:55;2.85;;;1.88;;
57800;SDS011;43627;42.728;23.256;2022-09-13T15:44:24;2.00;;;1.65;;
57800;SDS011;43627;42.728;23.256;2022-09-13T15:46:55;4.00;;;1.67;;
57800;SDS011;43627;42.728;23.256;2022-09-13T15:49:27;2.70;;;1.45;;
57800;SDS011;43627;42.728;23.256;2022-09-13T15:51:58;2.15;;;1.85;;
57800;SDS011;43627;42.728;23.256;2022-09-13T15:54:30;4.22;;;1.90;;
57800;SDS011;43627;42.728;23.256;2022-09-13T15:57:08;2.85;;;1.77;;
57800;SDS011;43627;42.728;23.256;2022-09-13T15:59:39;10.05;;;3.22;;
57800;SDS011;43627;42.728;23.256;2022-09-13T16:02:23;3.88;;;1.77;;
57800;SDS011;43627;42.728;23.256;2022-09-13T16:04:51;3.30;;;2.20;;
57800;SDS011;43627;42.728;23.256;2022-09-13T16:07:17;5.20;;;2.30;;
57800;SDS011;43627;42.728;23.256;2022-09-13T16:09:44;2.03;;;1.73;;
57800;SDS011;43627;42.728;23.256;2022-09-13T16:12:13;5.28;;;2.20;;
57800;SDS011;43627;42.728;23.256;2022-09-13T16:14:39;3.53;;;2.35;;
57800;SDS011;43627;42.728;23.256;2022-09-13T16:17:09;2.95;;;1.70;;
57800;SDS011;43627;42.728;23.256;2022-09-13T16:19:39;2.45;;;1.92;;
57800;SDS011;43627;42.728;23.256;2022-09-13T16:22:06;4.00;;;1.83;;
57800;SDS011;43627;42.728;23.256;2022-09-13T16:24:38;5.53;;;1.80;;
57800;SDS011;43627;42.728;23.256;2022-09-13T16:27:04;4.72;;;2.10;;
57800;SDS011;43627;42.728;23.256;2022-09-13T16:29:31;3.45;;;2.25;;
57800;SDS011;43627;42.728;23.256;2022-09-13T16:31:57;2.95;;;2.30;;
57800;SDS011;43627;42.728;23.256;2022-09-13T16:34:26;6.60;;;3.45;;
57800;SDS011;43627;42.728;23.256;2022-09-13T16:36:53;5.72;;;3.78;;
57800;SDS011;43627;42.728;23.256;2022-09-13T16:39:20;4.93;;;3.15;;
57800;SDS011;43627;42.728;23.256;2022-09-13T16:41:46;2.85;;;2.25;;
57800;SDS011;43627;42.728;23.256;2022-09-13T16:44:14;2.55;;;1.90;;
57800;SDS011;43627;42.728;23.256;2022-09-13T16:46:41;3.13;;;2.30;;
57800;SDS011;43627;42.728;23.256;2022-09-13T16:49:08;4.63;;;1.90;;
57800;SDS011;43627;42.728;23.256;2022-09-13T16:51:35;5.18;;;2.42;;
57800;SDS011;43627;42.728;23.256;2022-09-13T16:54:02;5.65;;;2.90;;
57800;SDS011;43627;42.728;23.256;2022-09-13T16:56:29;5.40;;;2.50;;
57800;SDS011;43627;42.728;23.256;2022-09-13T16:58:56;2.83;;;2.33;;
57800;SDS011;43627;42.728;23.256;2022-09-13T17:01:24;3.15;;;2.13;;
57800;SDS011;43627;42.728;23.256;2022-09-13T17:03:53;4.15;;;2.45;;
57800;SDS011;43627;42.728;23.256;2022-09-13T17:06:21;2.78;;;2.30;;
57800;SDS011;43627;42.728;23.256;2022-09-13T17:08:50;3.67;;;2.75;;
57800;SDS011;43627;42.728;23.256;2022-09-13T17:11:27;5.65;;;3.20;;
57800;SDS011;43627;42.728;23.256;2022-09-13T17:13:56;3.45;;;2.60;;
57800;SDS011;43627;42.728;23.256;2022-09-13T17:19:05;5.00;;;2.50;;
57800;SDS011;43627;42.728;23.256;2022-09-13T17:21:33;2.90;;;2.25;;
57800;SDS011;43627;42.728;23.256;2022-09-13T17:24:00;10.18;;;3.20;;
57800;SDS011;43627;42.728;23.256;2022-09-13T17:26:27;4.53;;;3.17;;
57800;SDS011;43627;42.728;23.256;2022-09-13T17:28:54;4.50;;;2.63;;
57800;SDS011;43627;42.728;23.256;2022-09-13T17:31:21;3.25;;;2.78;;
57800;SDS011;43627;42.728;23.256;2022-09-13T17:33:48;5.30;;;2.70;;
57800;SDS011;43627;42.728;23.256;2022-09-13T17:36:15;4.50;;;2.88;;
57800;SDS011;43627;42.728;23.256;2022-09-13T17:38:42;6.32;;;3.25;;
57800;SDS011;43627;42.728;23.256;2022-09-13T17:41:10;10.02;;;3.05;;
57800;SDS011;43627;42.728;23.256;2022-09-13T17:43:43;6.10;;;3.03;;
57800;SDS011;43627;42.728;23.256;2022-09-13T17:46:13;4.60;;;3.70;;
57800;SDS011;43627;42.728;23.256;2022-09-13T17:48:48;3.95;;;2.90;;
57800;SDS011;43627;42.728;23.256;2022-09-13T17:51:17;3.22;;;2.38;;
57800;SDS011;43627;42.728;23.256;2022-09-13T17:53:47;5.18;;;3.40;;
57800;SDS011;43627;42.728;23.256;2022-09-13T17:56:16;4.85;;;2.90;;
57800;SDS011;43627;42.728;23.256;2022-09-13T17:58:44;8.48;;;2.85;;
57800;SDS011;43627;42.728;23.256;2022-09-13T18:01:11;4.85;;;3.10;;
57800;SDS011;43627;42.728;23.256;2022-09-13T18:03:39;4.78;;;2.92;;
57800;SDS011;43627;42.728;23.256;2022-09-13T18:06:06;4.60;;;2.63;;
57800;SDS011;43627;42.728;23.256;2022-09-13T18:08:35;3.78;;;3.00;;
57800;SDS011;43627;42.728;23.256;2022-09-13T18:11:04;6.82;;;3.05;;
57800;SDS011;43627;42.728;23.256;2022-09-13T18:13:39;4.25;;;3.08;;
57800;SDS011;43627;42.728;23.256;2022-09-13T18:16:13;6.15;;;3.00;;
57800;SDS011;43627;42.728;23.256;2022-09-13T18:18:46;7.25;;;3.25;;
57800;SDS011;43627;42.728;23.256;2022-09-13T18:21:15;4.07;;;2.95;;
57800;SDS011;43627;42.728;23.256;2022-09-13T18:23:45;4.78;;;3.17;;
57800;SDS011;43627;42.728;23.256;2022-09-13T18:26:13;3.20;;;2.85;;
57800;SDS011;43627;42.728;23.256;2022-09-13T18:28:42;3.42;;;2.80;;
57800;SDS011;43627;42.728;23.256;2022-09-13T18:31:13;5.95;;;2.90;;
57800;SDS011;43627;42.728;23.256;2022-09-13T18:33:42;4.72;;;2.58;;
57800;SDS011;43627;42.728;23.256;2022-09-13T18:36:10;7.53;;;3.40;;
57800;SDS011;43627;42.728;23.256;2022-09-13T18:41:14;5.25;;;3.60;;
57800;SDS011;43627;42.728;23.256;2022-09-13T18:43:43;4.70;;;2.65;;
57800;SDS011;43627;42.728;23.256;2022-09-13T18:46:11;4.05;;;2.70;;
57800;SDS011;43627;42.728;23.256;2022-09-13T18:48:41;5.07;;;3.47;;